Crab Meadow, New York
Current Conditions -  °F | °C
As of 4:01 PM on Tuesday 27 Jan 2015 (Local Time) from KFRG Reporting Station
Blowing Snow Blowing Snow  
Wind Chill: 11°   Ceiling: Unl
Heat Index: 24°   Visibility: 3mi
Dew Point: 13°   Wind: 17mph
Humidity: 62%   Direction: 350°N
Pressure: 29.63"   Gusts: 32mph
Location:  40.9096°N, 73.3231°W
Report Text: KFRG 272101Z 35015G28KT 3SM BLSN CLR M04/M11 A2963 RMK AO2 PK WND 34028/2054 TWR VIS 10 UPE2057SNB2057E2058 P0000 T10441106 $
Loading
Personal Weather Stations






























Interactive Weather Map New forecast layout! Learn more

10-Day Weather Forecast

Advertisements
Track Severe Weather on mobile